Time;durP1;ratioP1;P1;durP2;ratioP2;P2;SDS_P1;SDS_P2;PMS_P1;PMS_P2;Temp;Humidity;BMP_temperature;BMP_pressure;BME280_temperature;BME280_humidity;BME280_pressure;Samples;Min_cycle;Max_cycle;Signal;HPM_P1;HPM_P2
2021/10/28 00:14:30;;;;;;;8.20;1.10;;;12.70;99.90;;;;;;5044908;28;20048;-94
2021/10/28 00:16:57;;;;;;;6.28;1.40;;;12.70;99.90;;;;;;5005512;28;20026;-94
2021/10/28 00:19:23;;;;;;;4.18;1.48;;;12.70;99.90;;;;;;5018159;28;20021;-96
2021/10/28 00:21:54;;;;;;;3.42;0.90;;;12.70;99.90;;;;;;5017426;28;20021;-95
2021/10/28 00:24:20;;;;;;;;;;;12.60;99.90;;;;;;5014323;28;20044;-95
2021/10/28 00:26:46;;;;;;;12.48;2.42;;;12.70;99.90;;;;;;5016528;28;19905;-96
2021/10/28 00:29:15;;;;;;;5.40;1.73;;;12.70;99.90;;;;;;5018169;28;20052;-96
2021/10/28 00:31:42;;;;;;;5.22;1.35;;;12.60;99.90;;;;;;5017697;28;20021;-96
2021/10/28 00:34:09;;;;;;;8.82;1.50;;;12.60;99.90;;;;;;5009654;28;20025;-92
2021/10/28 00:36:37;;;;;;;11.15;2.75;;;12.60;99.90;;;;;;5017422;28;20398;-94
2021/10/28 00:39:04;;;;;;;5.65;1.70;;;12.60;99.90;;;;;;5016861;28;20051;-92
2021/10/28 00:41:30;;;;;;;7.45;1.50;;;12.60;99.90;;;;;;5017650;28;20490;-92
2021/10/28 00:43:59;;;;;;;5.25;1.67;;;12.60;99.90;;;;;;5017307;28;20032;-93
2021/10/28 00:46:27;;;;;;;7.47;1.95;;;12.60;99.90;;;;;;5017911;28;20479;-93
2021/10/28 00:48:53;;;;;;;5.47;1.48;;;12.70;99.90;;;;;;5017371;28;20021;-93
2021/10/28 00:51:22;;;;;;;10.75;1.95;;;12.70;99.90;;;;;;5017211;28;20041;-92
2021/10/28 00:53:49;;;;;;;4.80;1.50;;;12.70;99.90;;;;;;5022669;28;20042;-95
2021/10/28 00:56:16;;;;;;;5.68;1.50;;;12.70;99.90;;;;;;5035891;28;20053;-94
2021/10/28 00:58:42;;;;;;;5.90;1.98;;;12.70;99.90;;;;;;5017226;28;20029;-96
2021/10/28 01:01:08;;;;;;;11.77;1.50;;;12.80;99.90;;;;;;5016801;28;20047;-93
2021/10/28 01:03:36;;;;;;;4.35;2.03;;;12.80;99.90;;;;;;5017638;28;20071;-96
2021/10/28 01:06:04;;;;;;;7.20;1.52;;;12.80;99.90;;;;;;5023160;28;20049;-94
2021/10/28 01:08:30;;;;;;;7.72;2.15;;;12.80;99.90;;;;;;5018272;28;20049;-95
2021/10/28 01:10:56;;;;;;;7.90;2.17;;;12.80;99.90;;;;;;5018623;28;20029;-94
2021/10/28 01:13:24;;;;;;;5.15;1.63;;;12.80;99.90;;;;;;5019478;28;20025;-96
2021/10/28 01:15:52;;;;;;;4.88;1.50;;;12.80;99.90;;;;;;5022108;28;20033;-95
2021/10/28 01:18:18;;;;;;;8.52;1.60;;;12.80;99.90;;;;;;5017068;28;20083;-96
2021/10/28 01:20:47;;;;;;;5.20;1.30;;;12.80;99.90;;;;;;5017070;28;20611;-94
2021/10/28 01:23:13;;;;;;;5.65;1.92;;;12.80;99.90;;;;;;5017288;28;20030;-94
2021/10/28 01:25:39;;;;;;;5.63;1.50;;;12.80;99.90;;;;;;5017217;28;20026;-94
2021/10/28 01:28:15;;;;;;;6.82;1.60;;;12.80;99.90;;;;;;5016988;28;20532;-94
2021/10/28 01:30:45;;;;;;;5.82;1.10;;;12.80;99.90;;;;;;5016788;28;20115;-95
2021/10/28 01:33:11;;;;;;;6.53;1.67;;;12.80;99.90;;;;;;5018140;28;20167;-93
2021/10/28 01:35:37;;;;;;;4.85;1.40;;;12.80;99.90;;;;;;5017666;28;20557;-96
2021/10/28 01:38:03;;;;;;;7.43;1.73;;;12.80;99.90;;;;;;5017688;28;20028;-96
2021/10/28 01:40:29;;;;;;;4.43;1.30;;;12.80;99.90;;;;;;5017505;28;20029;-95
2021/10/28 01:42:54;;;;;;;5.82;1.52;;;12.80;99.90;;;;;;5017613;28;20025;-96
2021/10/28 01:45:20;;;;;;;3.30;1.60;;;12.80;99.90;;;;;;5035215;28;20029;-95
2021/10/28 01:47:46;;;;;;;7.80;1.90;;;12.80;99.90;;;;;;5018029;28;20036;-96
2021/10/28 01:50:12;;;;;;;11.30;1.77;;;12.80;99.90;;;;;;5017581;28;20044;-94
2021/10/28 01:52:40;;;;;;;3.40;0.95;;;12.70;99.90;;;;;;5018582;28;20089;-95
2021/10/28 01:55:09;;;;;;;7.82;2.05;;;12.80;99.90;;;;;;5030530;28;20057;-96
2021/10/28 01:57:35;;;;;;;6.50;1.60;;;12.80;99.90;;;;;;5023034;28;20085;-94
2021/10/28 02:00:02;;;;;;;9.43;2.05;;;12.80;99.90;;;;;;5017232;28;20832;-94
2021/10/28 02:02:28;;;;;;;4.80;1.30;;;12.80;99.90;;;;;;5016646;28;20052;-96
2021/10/28 02:04:55;;;;;;;6.50;1.67;;;12.80;99.90;;;;;;5017041;28;20573;-96
2021/10/28 02:07:20;;;;;;;5.40;1.77;;;12.80;99.90;;;;;;5017724;28;20029;-95
2021/10/28 02:09:46;;;;;;;6.78;1.55;;;12.80;99.90;;;;;;5017426;28;20036;-96
2021/10/28 02:12:12;;;;;;;5.10;1.50;;;12.80;99.90;;;;;;5016820;28;20029;-96
2021/10/28 02:14:37;;;;;;;3.45;1.20;;;12.80;99.90;;;;;;5018632;28;20025;-95
2021/10/28 02:17:03;;;;;;;9.50;1.73;;;12.80;99.90;;;;;;5025179;28;20033;-94
2021/10/28 02:19:29;;;;;;;6.60;1.20;;;12.80;99.90;;;;;;5026962;28;20028;-94
2021/10/28 02:21:55;;;;;;;2.95;1.35;;;12.80;99.90;;;;;;5023439;28;20021;-94
2021/10/28 02:24:21;;;;;;;4.85;1.50;;;12.80;99.90;;;;;;5017808;28;20029;-96
2021/10/28 02:26:46;;;;;;;6.22;1.40;;;12.80;99.90;;;;;;5020768;28;20035;-96
2021/10/28 02:29:12;;;;;;;3.20;1.08;;;12.80;99.90;;;;;;5029871;28;20055;-95
2021/10/28 02:31:43;;;;;;;5.57;1.25;;;12.80;99.90;;;;;;5019430;28;20022;-94
2021/10/28 02:34:09;;;;;;;10.85;1.45;;;12.80;99.90;;;;;;5019043;28;20030;-96
2021/10/28 02:36:35;;;;;;;4.30;1.02;;;12.80;99.90;;;;;;5020186;28;20033;-91
2021/10/28 02:39:01;;;;;;;7.65;1.40;;;12.80;99.90;;;;;;5020966;28;20072;-96
2021/10/28 02:41:27;;;;;;;5.68;1.83;;;12.80;99.90;;;;;;5027765;28;20095;-95
2021/10/28 02:43:52;;;;;;;2.22;1.10;;;12.80;99.90;;;;;;5027181;28;20033;-95
2021/10/28 02:46:18;;;;;;;4.28;1.02;;;12.80;99.90;;;;;;5022955;28;20144;-96
2021/10/28 02:48:44;;;;;;;9.43;1.63;;;12.80;99.90;;;;;;5024675;28;20092;-95
2021/10/28 02:51:10;;;;;;;5.88;1.25;;;12.90;99.90;;;;;;5022678;28;20052;-96
2021/10/28 02:53:35;;;;;;;6.93;1.38;;;12.90;99.90;;;;;;5017992;28;20025;-95
2021/10/28 02:56:01;;;;;;;2.28;0.75;;;12.90;99.90;;;;;;4999174;28;20487;-94
2021/10/28 02:58:27;;;;;;;4.03;1.27;;;12.90;99.90;;;;;;5001172;28;20032;-93
2021/10/28 03:00:52;;;;;;;4.80;1.40;;;12.90;99.90;;;;;;4998379;28;20026;-96
2021/10/28 03:03:18;;;;;;;3.58;1.00;;;12.90;99.90;;;;;;5002972;28;20022;-95
2021/10/28 03:05:44;;;;;;;6.25;1.20;;;12.90;99.90;;;;;;5005901;28;20030;-96
2021/10/28 03:08:09;;;;;;;1.90;1.17;;;12.90;99.90;;;;;;5006114;28;20125;-95
2021/10/28 03:10:36;;;;;;;4.35;1.00;;;12.90;99.90;;;;;;5007688;28;20029;-96
2021/10/28 03:13:01;;;;;;;6.65;1.23;;;12.90;99.90;;;;;;5009037;28;20049;-96
2021/10/28 03:15:32;;;;;;;4.45;1.40;;;12.90;99.90;;;;;;5012732;28;20030;-96
2021/10/28 03:26:10;;;;;;;4.22;1.42;;;12.90;99.90;;;;;;5025336;28;20036;-96
2021/10/28 03:28:35;;;;;;;10.15;1.85;;;12.90;99.90;;;;;;5008543;28;20594;-95
2021/10/28 03:31:01;;;;;;;4.18;1.70;;;13.00;99.90;;;;;;5004951;28;20116;-96
2021/10/28 03:33:27;;;;;;;8.23;1.30;;;13.00;99.90;;;;;;5002431;28;20029;-96
2021/10/28 03:35:53;;;;;;;2.08;0.80;;;13.00;99.90;;;;;;5000903;28;20033;-95
2021/10/28 03:38:32;;;;;;;3.03;0.68;;;12.90;99.90;;;;;;5003349;28;20443;-95
2021/10/28 03:52:04;;;;;;;2.83;1.60;;;13.00;99.90;;;;;;4987344;28;20041;-96
2021/10/28 04:06:09;;;;;;;3.08;1.27;;;13.00;99.90;;;;;;4969926;29;20437;-96
2021/10/28 04:30:14;;;;;;;14.88;2.28;;;12.90;99.90;;;;;;4910750;29;20024;-91
2021/10/28 04:32:40;;;;;;;6.85;1.80;;;12.90;99.90;;;;;;4913883;29;20033;-89
2021/10/28 04:35:08;;;;;;;4.97;1.65;;;13.00;99.90;;;;;;4903165;29;20044;-89
2021/10/28 04:37:33;;;;;;;21.45;2.13;;;13.00;99.90;;;;;;4891295;29;20039;-94
2021/10/28 04:39:59;;;;;;;7.13;1.85;;;13.00;99.90;;;;;;4884566;29;20029;-94
2021/10/28 04:42:24;;;;;;;6.93;2.15;;;13.00;99.90;;;;;;4873787;29;20052;-92
2021/10/28 04:44:50;;;;;;;10.25;2.15;;;13.00;99.90;;;;;;4886518;29;20025;-94
2021/10/28 04:47:16;;;;;;;11.80;1.88;;;13.00;99.90;;;;;;4881910;29;20036;-95
2021/10/28 04:49:42;;;;;;;9.05;1.90;;;13.00;99.90;;;;;;4864874;29;20467;-95
2021/10/28 04:52:08;;;;;;;6.00;1.50;;;13.00;99.90;;;;;;4880212;29;20116;-96
2021/10/28 04:54:34;;;;;;;3.38;0.82;;;13.00;99.90;;;;;;4889332;29;20435;-94
2021/10/28 04:56:59;;;;;;;5.13;1.60;;;13.00;99.90;;;;;;4937777;29;20035;-95
2021/10/28 04:59:25;;;;;;;7.20;2.17;;;13.00;99.90;;;;;;4940789;29;20031;-94
2021/10/28 05:01:51;;;;;;;8.00;2.00;;;13.10;99.90;;;;;;4982481;28;20077;-94
2021/10/28 05:04:18;;;;;;;6.18;1.88;;;13.10;99.90;;;;;;5002605;28;20064;-96
2021/10/28 05:06:44;;;;;;;8.30;1.67;;;13.10;99.90;;;;;;5027507;28;20052;-95
2021/10/28 05:09:11;;;;;;;6.00;1.60;;;13.10;99.90;;;;;;4999667;28;20032;-96
2021/10/28 05:11:37;;;;;;;6.90;1.50;;;13.10;99.90;;;;;;4999485;28;20057;-95
2021/10/28 05:14:03;;;;;;;8.63;1.40;;;13.10;99.90;;;;;;4999675;28;20056;-95
2021/10/28 05:16:29;;;;;;;4.88;1.75;;;13.10;99.90;;;;;;4999826;28;20384;-95
2021/10/28 05:18:55;;;;;;;7.95;1.58;;;13.10;99.90;;;;;;4999982;28;20026;-95
2021/10/28 05:21:21;;;;;;;10.70;1.77;;;13.10;99.90;;;;;;5016836;28;20051;-96
2021/10/28 05:23:47;;;;;;;9.23;2.10;;;13.20;99.90;;;;;;4999727;28;20030;-96
2021/10/28 05:26:13;;;;;;;5.15;1.50;;;13.10;99.90;;;;;;5001558;28;20029;-96
2021/10/28 05:28:39;;;;;;;5.38;1.20;;;13.20;99.90;;;;;;5031903;28;20025;-95
2021/10/28 05:31:05;;;;;;;10.95;2.25;;;13.20;99.90;;;;;;5026446;28;20101;-96
2021/10/28 05:33:31;;;;;;;12.30;2.15;;;13.20;99.90;;;;;;5013493;28;20034;-94
2021/10/28 05:35:56;;;;;;;8.10;2.53;;;13.10;99.90;;;;;;5013709;28;20042;-95
2021/10/28 05:38:22;;;;;;;10.63;1.90;;;13.20;99.90;;;;;;5016892;28;20029;-94
2021/10/28 05:40:48;;;;;;;2.70;1.30;;;13.10;99.90;;;;;;5027295;28;20038;-95
2021/10/28 05:43:14;;;;;;;8.05;2.22;;;13.10;99.90;;;;;;5007784;28;20021;-96
2021/10/28 05:45:39;;;;;;;8.50;1.85;;;13.10;99.90;;;;;;5006458;28;20026;-95
2021/10/28 05:48:05;;;;;;;16.85;3.63;;;13.10;99.90;;;;;;5009446;28;20014;-95
2021/10/28 05:50:31;;;;;;;6.75;1.63;;;13.10;99.90;;;;;;5007764;28;20025;-94
2021/10/28 05:52:59;;;;;;;10.98;2.08;;;13.10;99.90;;;;;;5010021;28;20017;-94
2021/10/28 05:55:25;;;;;;;6.05;1.70;;;13.10;99.90;;;;;;5025494;28;20079;-96
2021/10/28 05:57:54;;;;;;;6.88;1.77;;;13.10;99.90;;;;;;5027899;28;20029;-95
2021/10/28 06:00:21;;;;;;;12.13;1.98;;;13.10;99.90;;;;;;5024051;28;20017;-96
2021/10/28 06:02:47;;;;;;;2.75;1.10;;;13.10;99.90;;;;;;5027876;28;20025;-96
2021/10/28 06:05:13;;;;;;;6.88;1.70;;;13.10;99.90;;;;;;5032343;28;20059;-94
2021/10/28 06:07:39;;;;;;;11.90;3.00;;;13.10;99.90;;;;;;5038504;28;20021;-94
2021/10/28 06:10:07;;;;;;;9.75;2.00;;;13.10;99.90;;;;;;5037729;28;20029;-93
2021/10/28 06:12:39;;;;;;;7.30;1.65;;;13.10;99.90;;;;;;5037424;28;20032;-93
2021/10/28 06:15:06;;;;;;;8.35;2.17;;;13.10;99.90;;;;;;5028869;28;20037;-95
2021/10/28 06:17:44;;;;;;;10.10;1.98;;;13.10;99.90;;;;;;5052308;28;20013;-93
2021/10/28 06:20:10;;;;;;;8.38;1.60;;;13.10;99.90;;;;;;5045953;28;20087;-94
2021/10/28 06:22:36;;;;;;;7.88;2.20;;;13.10;99.90;;;;;;5028550;28;20045;-94
2021/10/28 06:25:02;;;;;;;9.50;2.88;;;13.20;99.90;;;;;;5028152;28;20029;-92
2021/10/28 06:27:28;;;;;;;7.88;1.83;;;13.10;99.90;;;;;;5022053;28;20021;-92
2021/10/28 06:29:54;;;;;;;3.78;1.50;;;13.10;99.90;;;;;;5042220;28;20029;-93
2021/10/28 06:32:20;;;;;;;8.80;2.00;;;13.10;99.90;;;;;;5025569;28;20029;-93
2021/10/28 06:34:48;;;;;;;8.73;1.67;;;13.10;99.90;;;;;;5029193;28;20030;-94
2021/10/28 06:37:14;;;;;;;4.22;1.67;;;13.10;99.90;;;;;;5031763;28;20123;-93
2021/10/28 06:39:43;;;;;;;6.97;2.10;;;13.10;99.90;;;;;;5029199;28;20017;-94
2021/10/28 06:42:11;;;;;;;9.35;2.75;;;13.10;99.90;;;;;;5029923;28;20123;-93
2021/10/28 06:44:38;;;;;;;8.23;1.95;;;13.10;99.90;;;;;;5030107;28;20037;-95
2021/10/28 06:47:05;;;;;;;9.73;2.25;;;13.10;99.90;;;;;;5024712;28;20060;-92
2021/10/28 06:49:33;;;;;;;7.35;2.30;;;13.10;99.90;;;;;;5028825;28;20021;-92
2021/10/28 06:51:59;;;;;;;5.18;2.20;;;13.10;99.90;;;;;;5029409;28;20032;-95
2021/10/28 06:54:28;;;;;;;6.53;1.70;;;13.10;99.90;;;;;;5024140;28;20046;-94
2021/10/28 07:04:57;;;;;;;7.85;2.10;;;13.10;99.90;;;;;;5025843;28;20497;-92
2021/10/28 07:07:25;;;;;;;5.45;2.22;;;13.20;99.90;;;;;;5006779;28;20052;-95
2021/10/28 07:10:01;;;;;;;5.32;1.70;;;13.20;99.90;;;;;;5008853;28;20052;-93
2021/10/28 07:14:57;;;;;;;8.27;2.15;;;13.20;99.90;;;;;;5027097;28;20076;-95
2021/10/28 07:25:25;;;;;;;3.35;1.85;;;13.20;99.90;;;;;;5031530;28;20025;-92
2021/10/28 07:28:14;;;;;;;12.27;2.35;;;13.20;99.90;;;;;;5009425;28;20033;-91
2021/10/28 08:21:40;;;;;;;4.90;1.90;;;13.20;99.90;;;;;;5053410;28;20026;-96
2021/10/28 08:24:30;;;;;;;8.85;2.42;;;13.10;99.90;;;;;;5032635;28;20061;-93
2021/10/28 08:29:50;;;;;;;10.60;2.15;;;13.10;99.90;;;;;;5058014;28;20171;-96
2021/10/28 08:32:19;;;;;;;7.15;1.80;;;13.10;99.90;;;;;;5032660;28;20033;-94
2021/10/28 08:34:48;;;;;;;7.55;1.92;;;13.10;99.90;;;;;;5027346;28;20068;-93
2021/10/28 08:37:19;;;;;;;7.40;2.40;;;13.10;99.90;;;;;;5029682;28;20126;-93
2021/10/28 08:39:52;;;;;;;16.63;1.60;;;13.10;99.90;;;;;;5047145;28;20083;-93
2021/10/28 08:42:21;;;;;;;6.63;1.80;;;13.10;99.90;;;;;;5045167;28;20016;-91
2021/10/28 08:44:53;;;;;;;13.45;2.30;;;13.20;99.90;;;;;;5048591;28;20052;-94
2021/10/28 08:47:21;;;;;;;4.93;1.80;;;13.20;99.90;;;;;;5041956;28;20045;-95
2021/10/28 08:49:51;;;;;;;11.10;2.78;;;13.20;99.90;;;;;;5026786;28;20025;-93
2021/10/28 09:26:47;;;;;;;8.05;2.38;;;13.50;99.90;;;;;;5024080;28;20116;-94
2021/10/28 09:32:09;;;;;;;11.32;2.30;;;13.60;99.90;;;;;;5035508;28;20030;-94
2021/10/28 09:51:48;;;;;;;11.60;2.72;;;13.70;99.90;;;;;;4965301;28;20031;-95
2021/10/28 09:54:23;;;;;;;7.97;2.90;;;13.70;99.90;;;;;;4970797;28;20137;-94
2021/10/28 09:59:43;;;;;;;5.55;2.30;;;13.70;99.90;;;;;;4983892;28;20041;-94
2021/10/28 10:02:57;;;;;;;4.75;1.58;;;13.80;99.90;;;;;;4985298;28;20050;-96
2021/10/28 10:05:24;;;;;;;4.10;1.70;;;13.80;99.90;;;;;;4981317;28;20035;-93
2021/10/28 10:07:52;;;;;;;5.10;2.13;;;13.80;99.90;;;;;;4969518;28;20078;-95
2021/10/28 10:10:20;;;;;;;5.75;2.05;;;13.90;99.90;;;;;;4985241;28;20033;-95
2021/10/28 10:12:47;;;;;;;6.93;2.28;;;13.90;99.90;;;;;;4989067;28;20085;-94
2021/10/28 10:15:13;;;;;;;9.05;2.28;;;14.00;99.90;;;;;;5026226;28;20041;-95
2021/10/28 10:17:51;;;;;;;5.57;1.55;;;14.00;99.90;;;;;;5031593;28;20100;-95
2021/10/28 10:20:19;;;;;;;7.35;1.80;;;14.10;99.90;;;;;;5050086;28;20052;-96
2021/10/28 10:22:56;;;;;;;9.38;2.13;;;14.10;99.90;;;;;;5031136;28;20056;-95
2021/10/28 10:25:41;;;;;;;7.32;2.67;;;14.10;99.90;;;;;;5032200;28;20052;-94
2021/10/28 11:22:06;;;;;;;5.20;1.45;;;14.90;99.90;;;;;;4968053;28;20536;-96
2021/10/28 11:24:17;;;;;;;2.30;1.08;;;14.90;99.90;;;;;;4961450;28;20055;-96
2021/10/28 12:23:35;;;;;;;7.70;1.80;;;14.70;99.90;;;;;;4985606;28;20019;-90
2021/10/28 12:43:42;;;;;;;8.75;2.05;;;14.60;99.90;;;;;;5059423;28;20029;-91
2021/10/28 12:46:42;;;;;;;8.18;1.98;;;14.60;99.90;;;;;;5041808;28;20017;-90
2021/10/28 12:49:34;;;;;;;6.35;2.03;;;14.60;99.90;;;;;;5058270;28;20021;-93
2021/10/28 12:52:18;;;;;;;10.25;3.50;;;14.60;99.90;;;;;;5058663;28;20037;-93
2021/10/28 12:54:50;;;;;;;8.52;1.83;;;14.70;99.90;;;;;;5053534;28;20065;-92
2021/10/28 13:02:16;;;;;;;4.72;1.80;;;14.70;99.90;;;;;;5036946;28;20078;-95
2021/10/28 13:34:55;;;;;;;3.15;1.33;;;14.80;99.90;;;;;;5036250;28;20037;-94
2021/10/28 13:55:59;;;;;;;9.63;2.38;;;14.80;99.90;;;;;;5035923;28;20179;-90
2021/10/28 13:58:47;;;;;;;8.43;2.13;;;14.70;99.90;;;;;;5018536;28;20046;-96
2021/10/28 15:36:15;;;;;;;7.20;1.95;;;14.30;99.90;;;;;;5038855;28;20044;-94
2021/10/28 15:55:30;;;;;;;8.60;2.25;;;14.20;99.90;;;;;;5038713;28;20061;-93
2021/10/28 16:22:17;;;;;;;10.13;3.33;;;13.90;99.90;;;;;;4996415;28;20049;-96
2021/10/28 16:24:44;;;;;;;6.78;2.83;;;13.80;99.90;;;;;;4995456;28;20018;-96
2021/10/28 16:27:11;;;;;;;7.82;3.00;;;13.80;99.90;;;;;;4992662;28;20041;-96
2021/10/28 16:29:37;;;;;;;6.20;2.95;;;13.70;99.90;;;;;;4981837;28;20074;-96
2021/10/28 16:32:03;;;;;;;10.68;3.47;;;13.60;99.90;;;;;;4978422;28;20030;-95
2021/10/28 16:34:29;;;;;;;7.97;3.33;;;13.60;99.90;;;;;;4976877;28;20078;-95
2021/10/28 16:36:56;;;;;;;6.55;2.95;;;13.50;99.90;;;;;;4995407;28;20120;-94
2021/10/28 16:39:24;;;;;;;7.78;3.30;;;13.50;99.90;;;;;;4998798;28;20094;-93
2021/10/28 16:41:54;;;;;;;10.07;3.10;;;13.50;99.90;;;;;;5002640;28;20038;-95
2021/10/28 16:44:20;;;;;;;8.60;3.40;;;13.40;99.90;;;;;;5009380;28;20029;-96
2021/10/28 16:46:47;;;;;;;10.43;3.22;;;13.40;99.90;;;;;;5011339;28;20022;-95
2021/10/28 16:49:14;;;;;;;7.85;3.20;;;13.40;99.90;;;;;;5014585;28;20038;-96
2021/10/28 16:51:41;;;;;;;9.25;2.85;;;13.40;99.90;;;;;;5013991;28;20033;-95
2021/10/28 16:54:08;;;;;;;8.52;2.85;;;13.30;99.90;;;;;;5014498;28;20026;-95
2021/10/28 16:56:34;;;;;;;9.38;2.97;;;13.40;99.90;;;;;;5015243;28;20105;-96
2021/10/28 16:59:00;;;;;;;8.98;2.90;;;13.40;99.90;;;;;;5017441;28;20045;-95
2021/10/28 17:01:26;;;;;;;10.90;3.78;;;13.30;99.90;;;;;;5015869;28;20022;-96
2021/10/28 17:03:53;;;;;;;7.05;2.47;;;13.30;99.90;;;;;;5012912;28;20017;-95
2021/10/28 17:06:21;;;;;;;6.28;2.90;;;13.30;99.90;;;;;;5018264;28;20089;-95
2021/10/28 17:08:47;;;;;;;9.65;2.65;;;13.30;99.90;;;;;;5019354;28;20040;-95
2021/10/28 17:11:14;;;;;;;7.32;2.80;;;13.30;99.90;;;;;;5021730;28;20017;-95
2021/10/28 17:13:42;;;;;;;8.55;2.15;;;13.30;99.90;;;;;;5011847;28;20041;-94
2021/10/28 17:16:11;;;;;;;9.07;3.35;;;13.30;99.90;;;;;;5014513;28;20040;-94
2021/10/28 17:18:37;;;;;;;3.63;2.33;;;13.20;99.90;;;;;;5029145;28;20049;-94
2021/10/28 17:21:06;;;;;;;8.10;2.70;;;13.20;99.90;;;;;;5006209;28;20034;-95
2021/10/28 17:23:36;;;;;;;7.28;3.22;;;13.20;99.90;;;;;;5006818;28;20022;-94
2021/10/28 17:26:03;;;;;;;3.63;2.47;;;13.20;99.90;;;;;;5004499;28;20033;-96
2021/10/28 17:28:31;;;;;;;8.75;2.88;;;13.20;99.90;;;;;;5007096;28;20052;-95
2021/10/28 17:30:57;;;;;;;10.63;3.60;;;13.20;99.90;;;;;;5003098;28;20054;-94
2021/10/28 17:33:23;;;;;;;8.85;3.35;;;13.10;99.90;;;;;;5001274;28;20052;-94
2021/10/28 17:35:48;;;;;;;7.03;3.17;;;13.10;99.90;;;;;;5001304;28;20058;-95
2021/10/28 17:38:14;;;;;;;6.20;3.55;;;13.10;99.90;;;;;;4998955;28;20037;-93
2021/10/28 17:40:40;;;;;;;7.03;3.53;;;13.10;99.90;;;;;;5003928;28;20126;-94
2021/10/28 17:43:10;;;;;;;8.60;3.47;;;13.10;99.90;;;;;;5001360;28;20022;-93
2021/10/28 17:45:37;;;;;;;9.13;3.03;;;13.10;99.90;;;;;;5002585;28;20117;-94
2021/10/28 17:48:04;;;;;;;9.13;3.30;;;13.00;99.90;;;;;;5009395;28;20022;-94
2021/10/28 17:50:30;;;;;;;6.15;3.13;;;13.00;99.90;;;;;;5010490;28;20030;-96
2021/10/28 17:52:56;;;;;;;6.32;2.80;;;13.00;99.90;;;;;;5010440;28;20034;-96
2021/10/28 17:55:22;;;;;;;6.25;2.67;;;13.00;99.90;;;;;;5024095;28;20078;-95
2021/10/28 17:57:50;;;;;;;5.78;2.55;;;13.00;99.90;;;;;;5036265;28;20036;-95
2021/10/28 18:00:18;;;;;;;6.00;2.28;;;13.00;99.90;;;;;;5050011;28;20034;-95
2021/10/28 18:02:44;;;;;;;3.05;2.38;;;12.90;99.90;;;;;;5031070;28;20033;-94
2021/10/28 18:05:11;;;;;;;4.68;2.47;;;13.00;99.90;;;;;;5029555;28;20076;-96
2021/10/28 18:07:37;;;;;;;3.13;1.70;;;13.00;99.90;;;;;;5032784;28;20212;-95
2021/10/28 18:10:05;;;;;;;2.55;2.13;;;13.00;99.90;;;;;;5066508;28;20089;-96
2021/10/28 18:12:34;;;;;;;3.83;2.10;;;13.00;99.90;;;;;;5045683;28;20029;-95
2021/10/28 18:15:00;;;;;;;3.55;2.28;;;13.00;99.90;;;;;;5048831;28;20029;-94
2021/10/28 18:17:27;;;;;;;5.82;2.15;;;13.00;99.90;;;;;;5046915;28;20056;-94
2021/10/28 18:19:52;;;;;;;4.07;2.65;;;13.00;99.90;;;;;;5050575;28;20005;-94
2021/10/28 18:22:18;;;;;;;3.95;2.28;;;13.00;99.90;;;;;;5050301;28;20033;-96
2021/10/28 18:24:44;;;;;;;3.92;2.20;;;12.90;99.90;;;;;;5043403;28;20087;-94
2021/10/28 18:27:10;;;;;;;2.45;1.65;;;13.00;99.90;;;;;;5028790;28;20470;-94
2021/10/28 18:29:37;;;;;;;6.55;2.13;;;13.00;99.90;;;;;;5025898;28;20075;-94
2021/10/28 18:32:04;;;;;;;3.88;2.08;;;13.00;99.90;;;;;;5029945;28;20018;-94
2021/10/28 18:34:30;;;;;;;4.13;2.15;;;12.90;99.90;;;;;;5033794;28;20017;-95
2021/10/28 18:36:56;;;;;;;3.55;1.77;;;12.90;99.90;;;;;;5031017;28;20490;-92
2021/10/28 18:39:22;;;;;;;3.15;2.33;;;12.90;99.90;;;;;;5038432;28;20555;-91
2021/10/28 18:41:47;;;;;;;4.60;1.70;;;12.90;99.90;;;;;;5033354;28;20041;-94
2021/10/28 18:44:14;;;;;;;4.55;2.13;;;13.00;99.90;;;;;;5029168;28;20277;-95
2021/10/28 18:46:40;;;;;;;5.15;2.17;;;12.90;99.90;;;;;;5024638;28;20037;-94
2021/10/28 18:49:07;;;;;;;2.85;1.90;;;12.90;99.90;;;;;;5022885;28;20035;-92
2021/10/28 18:51:34;;;;;;;3.20;1.83;;;12.90;99.90;;;;;;5020649;28;20091;-92
2021/10/28 18:54:01;;;;;;;3.47;2.10;;;12.90;99.90;;;;;;5021645;28;20037;-95
2021/10/28 18:56:27;;;;;;;1.88;1.63;;;12.90;99.90;;;;;;5020000;28;20479;-94
2021/10/28 18:58:53;;;;;;;3.63;2.00;;;12.90;99.90;;;;;;5020126;28;20033;-94
2021/10/28 19:01:23;;;;;;;7.13;2.22;;;12.90;99.90;;;;;;5019766;28;20032;-94
2021/10/28 19:03:51;;;;;;;3.50;2.35;;;12.90;99.90;;;;;;5019397;28;20022;-93
2021/10/28 19:06:17;;;;;;;1.98;1.70;;;12.90;99.90;;;;;;5020574;28;20033;-93
2021/10/28 19:08:43;;;;;;;5.80;2.50;;;12.90;99.90;;;;;;5021534;28;20029;-94
2021/10/28 19:11:10;;;;;;;4.18;2.35;;;13.00;99.90;;;;;;5020749;28;20398;-94
2021/10/28 19:13:42;;;;;;;5.63;2.88;;;13.00;99.90;;;;;;5023043;28;20022;-92
2021/10/28 19:16:08;;;;;;;5.05;3.40;;;12.90;99.90;;;;;;5019414;28;20033;-93
2021/10/28 19:18:34;;;;;;;8.85;3.63;;;12.90;99.90;;;;;;5026240;28;20092;-95
2021/10/28 19:21:01;;;;;;;6.35;3.50;;;13.00;99.90;;;;;;5025430;28;20044;-95
2021/10/28 19:23:27;;;;;;;5.80;3.90;;;13.00;99.90;;;;;;5022560;28;20033;-95
2021/10/28 19:25:53;;;;;;;6.53;3.75;;;12.90;99.90;;;;;;5028609;28;20047;-96
2021/10/28 19:28:19;;;;;;;10.02;4.53;;;13.00;99.90;;;;;;5036451;28;20028;-94
2021/10/28 19:30:52;;;;;;;6.85;4.43;;;12.90;99.90;;;;;;5026330;28;20029;-94
2021/10/28 19:33:22;;;;;;;7.72;4.00;;;12.90;99.90;;;;;;5025907;28;20025;-96
2021/10/28 19:35:53;;;;;;;11.33;5.00;;;12.90;99.90;;;;;;5024568;28;20042;-94
2021/10/28 19:41:16;;;;;;;8.25;3.83;;;13.00;99.90;;;;;;5048301;28;20164;-95
2021/10/28 19:46:17;;;;;;;5.70;3.80;;;13.00;99.90;;;;;;5042907;28;20087;-95
2021/10/28 19:48:42;;;;;;;7.65;3.97;;;12.90;99.90;;;;;;5024406;28;20063;-95
2021/10/28 19:51:09;;;;;;;6.50;4.13;;;12.90;99.90;;;;;;5027637;28;20042;-93
2021/10/28 19:53:35;;;;;;;9.60;4.38;;;13.00;99.90;;;;;;5026278;28;20021;-95
2021/10/28 19:56:20;;;;;;;7.25;4.18;;;12.90;99.90;;;;;;5047981;28;20057;-94
2021/10/28 19:58:51;;;;;;;9.45;4.47;;;13.00;99.90;;;;;;5041763;28;20021;-94
2021/10/28 20:06:26;;;;;;;11.85;5.82;;;12.90;99.90;;;;;;5060943;28;20032;-94
2021/10/28 20:20:10;;;;;;;13.85;6.43;;;12.90;99.90;;;;;;5046161;28;20517;-95
2021/10/28 20:22:38;;;;;;;16.85;6.72;;;12.90;99.90;;;;;;5027252;28;20029;-96
2021/10/28 20:25:06;;;;;;;11.20;6.65;;;12.80;99.90;;;;;;5027149;28;20033;-94
2021/10/28 20:27:31;;;;;;;13.13;6.85;;;12.80;99.90;;;;;;5023253;28;20022;-94
2021/10/28 20:29:58;;;;;;;8.38;5.18;;;12.90;99.90;;;;;;5024711;28;20119;-95
2021/10/28 20:32:24;;;;;;;8.00;5.55;;;12.80;99.90;;;;;;5020634;28;20126;-94
2021/10/28 20:37:16;;;;;;;13.68;5.82;;;12.80;99.90;;;;;;5039315;28;20275;-94
2021/10/28 20:39:43;;;;;;;7.43;5.40;;;12.80;99.90;;;;;;5021794;28;20390;-95
2021/10/28 20:42:14;;;;;;;10.25;4.78;;;12.80;99.90;;;;;;5023089;28;20053;-95
2021/10/28 20:44:41;;;;;;;7.93;6.00;;;12.80;99.90;;;;;;5023273;28;20074;-94
2021/10/28 20:47:06;;;;;;;9.20;5.78;;;12.80;99.90;;;;;;5037407;28;20037;-94
2021/10/28 20:49:32;;;;;;;12.80;6.35;;;12.80;99.90;;;;;;5022612;28;20479;-96
2021/10/28 20:51:58;;;;;;;9.60;6.25;;;12.80;99.90;;;;;;5022530;28;20036;-96
2021/10/28 20:54:24;;;;;;;11.43;6.47;;;12.80;99.90;;;;;;5037078;28;20042;-94
2021/10/28 20:56:52;;;;;;;10.35;6.68;;;12.80;99.90;;;;;;5014872;28;20041;-95
2021/10/28 20:59:19;;;;;;;12.75;6.53;;;12.70;99.90;;;;;;5019512;28;20021;-94
2021/10/28 21:01:46;;;;;;;11.70;6.93;;;12.70;99.90;;;;;;5012618;28;20055;-95
2021/10/28 21:04:15;;;;;;;12.68;7.88;;;12.80;99.90;;;;;;5011955;28;20026;-94
2021/10/28 21:06:41;;;;;;;15.20;8.10;;;12.80;99.90;;;;;;5002696;28;20022;-94
2021/10/28 21:09:07;;;;;;;14.65;7.45;;;12.70;99.90;;;;;;5014855;28;20272;-95
2021/10/28 21:11:36;;;;;;;10.68;6.70;;;12.70;99.90;;;;;;5015502;28;20043;-94
2021/10/28 21:14:02;;;;;;;10.38;7.25;;;12.70;99.90;;;;;;5020417;28;20032;-95
2021/10/28 21:16:27;;;;;;;15.13;7.25;;;12.70;99.90;;;;;;5039620;28;20045;-95
2021/10/28 21:18:53;;;;;;;10.68;7.00;;;12.70;99.90;;;;;;5014000;28;20049;-94
2021/10/28 21:21:19;;;;;;;12.77;7.03;;;12.70;99.90;;;;;;5013492;28;20033;-94
2021/10/28 21:23:45;;;;;;;9.73;6.72;;;12.70;99.90;;;;;;5015374;28;20083;-95
2021/10/28 21:26:12;;;;;;;11.38;6.28;;;12.70;99.90;;;;;;5013159;28;20028;-96
2021/10/28 21:28:37;;;;;;;13.20;6.97;;;12.70;99.90;;;;;;5019588;28;20025;-94
2021/10/28 21:31:04;;;;;;;10.98;6.32;;;12.60;99.90;;;;;;5023120;28;20052;-94
2021/10/28 21:33:29;;;;;;;13.25;7.25;;;12.60;99.90;;;;;;5020288;28;20033;-95
2021/10/28 21:35:56;;;;;;;10.93;7.45;;;12.70;99.90;;;;;;5019323;28;20041;-94
2021/10/28 21:38:22;;;;;;;13.88;7.95;;;12.70;99.90;;;;;;5015016;28;20018;-95
2021/10/28 21:40:48;;;;;;;14.88;7.88;;;12.70;99.90;;;;;;5017709;28;20029;-95
2021/10/28 21:43:15;;;;;;;14.02;8.60;;;12.60;99.90;;;;;;5013065;28;20107;-95
2021/10/28 21:45:41;;;;;;;13.55;8.18;;;12.60;99.90;;;;;;5020992;28;20043;-95